Time;durP1;ratioP1;P1;durP2;ratioP2;P2;SDS_P1;SDS_P2;PMS_P1;PMS_P2;Temp;Humidity;BMP_temperature;BMP_pressure;BME280_temperature;BME280_humidity;BME280_pressure;Samples;Min_cycle;Max_cycle;Signal;HPM_P1;HPM_P2
2024/01/16 00:01:45;;;;;;;6.55;3.03;;;-3275.60;98.80;;;;;;4999669;28;20038;-69
2024/01/16 00:04:11;;;;;;;5.15;2.30;;;-3275.60;98.90;;;;;;4999322;28;20057;-70
2024/01/16 00:06:43;;;;;;;5.15;2.53;;;-3275.50;98.80;;;;;;4996912;28;20125;-68
2024/01/16 00:09:12;;;;;;;5.13;2.72;;;-3275.50;98.70;;;;;;4996277;28;20437;-69
2024/01/16 00:11:43;;;;;;;4.40;2.20;;;-3275.40;98.60;;;;;;5001969;28;20046;-69
2024/01/16 00:14:09;;;;;;;4.72;2.35;;;-3275.40;98.50;;;;;;4990804;28;20378;-68
2024/01/16 00:16:45;;;;;;;5.00;2.58;;;-3275.40;98.60;;;;;;4995338;28;20123;-70
2024/01/16 00:19:12;;;;;;;6.03;2.65;;;-3275.40;98.60;;;;;;4995161;28;20018;-69
2024/01/16 00:21:47;;;;;;;7.65;3.33;;;-3275.30;98.60;;;;;;5000511;28;20045;-69
2024/01/16 00:24:14;;;;;;;8.45;3.40;;;-3275.30;98.70;;;;;;5001880;28;20030;-70
2024/01/16 00:26:39;;;;;;;5.72;3.13;;;-3275.20;98.80;;;;;;4998092;28;20478;-69
2024/01/16 00:29:05;;;;;;;6.82;3.22;;;-3275.30;98.90;;;;;;4995116;28;20034;-70
2024/01/16 00:31:31;;;;;;;6.35;3.00;;;-3275.30;99.00;;;;;;4998190;28;20213;-69
2024/01/16 00:33:56;;;;;;;7.15;3.08;;;-3275.30;99.10;;;;;;4999086;28;20034;-69
2024/01/16 00:36:22;;;;;;;6.88;3.28;;;-3275.20;99.00;;;;;;5001502;28;20030;-69
2024/01/16 00:38:48;;;;;;;8.00;3.40;;;-3275.20;99.10;;;;;;5000865;28;20034;-69
2024/01/16 00:41:17;;;;;;;5.47;3.17;;;-3275.20;99.10;;;;;;4996053;28;20034;-69
2024/01/16 00:43:45;;;;;;;6.75;3.22;;;-3275.10;99.10;;;;;;4999821;28;20046;-70
2024/01/16 00:46:11;;;;;;;6.70;2.92;;;-3275.10;99.20;;;;;;4994518;28;20056;-70
2024/01/16 00:48:36;;;;;;;8.27;3.17;;;-3275.10;99.20;;;;;;4997999;28;20575;-70
2024/01/16 00:51:02;;;;;;;6.82;3.60;;;-3275.00;99.20;;;;;;5004034;28;20022;-69
2024/01/16 00:53:27;;;;;;;5.45;3.00;;;-3275.00;99.20;;;;;;5004061;28;20042;-69
2024/01/16 00:55:54;;;;;;;5.72;2.70;;;-3275.00;99.20;;;;;;5002165;28;21179;-70
2024/01/16 00:58:23;;;;;;;6.18;3.03;;;-3275.00;99.20;;;;;;4998874;28;20125;-69
2024/01/16 01:00:48;;;;;;;7.00;3.55;;;-3274.90;99.20;;;;;;5003571;28;20092;-69
2024/01/16 01:03:14;;;;;;;6.85;3.50;;;-3274.90;99.40;;;;;;5001235;28;20033;-69
2024/01/16 01:05:39;;;;;;;7.78;3.65;;;-3274.90;99.30;;;;;;5003517;28;20048;-69
2024/01/16 01:08:05;;;;;;;7.15;3.55;;;-3274.80;99.30;;;;;;4996999;28;20030;-69
2024/01/16 01:10:31;;;;;;;7.30;3.63;;;-3274.90;99.40;;;;;;4996879;28;20030;-69
2024/01/16 01:12:56;;;;;;;6.90;3.10;;;-3274.80;99.40;;;;;;4997282;28;20497;-69
2024/01/16 01:15:22;;;;;;;7.05;3.47;;;-3274.80;99.40;;;;;;5000004;28;20037;-69
2024/01/16 01:17:51;;;;;;;9.02;3.10;;;-3274.80;99.50;;;;;;4999831;28;20034;-69
2024/01/16 01:20:19;;;;;;;5.82;2.78;;;-3274.90;99.50;;;;;;5004533;28;20419;-69
2024/01/16 01:22:45;;;;;;;7.93;3.80;;;-3274.90;99.60;;;;;;5003794;28;20117;-69
2024/01/16 01:25:11;;;;;;;9.02;3.80;;;-3274.90;99.60;;;;;;5002722;28;20038;-69
2024/01/16 01:27:37;;;;;;;6.35;3.10;;;-3275.00;99.60;;;;;;4983867;28;20473;-69
2024/01/16 01:30:03;;;;;;;6.70;4.00;;;-3275.00;99.60;;;;;;4996204;28;20604;-69
2024/01/16 01:32:29;;;;;;;8.15;4.00;;;-3275.00;99.60;;;;;;5003520;28;20082;-69
2024/01/16 01:34:54;;;;;;;6.82;3.42;;;-3274.90;99.60;;;;;;4999364;28;20046;-70
2024/01/16 01:37:20;;;;;;;6.07;3.47;;;-3274.90;99.60;;;;;;5002782;28;20373;-69
2024/01/16 01:39:45;;;;;;;7.93;4.03;;;-3274.90;99.60;;;;;;5000403;28;20181;-69
2024/01/16 01:42:11;;;;;;;8.38;3.60;;;-3274.90;99.70;;;;;;4998411;28;20031;-69
2024/01/16 01:44:37;;;;;;;7.18;3.15;;;-3274.90;99.70;;;;;;4996558;28;20124;-69
2024/01/16 01:47:02;;;;;;;8.35;3.95;;;-3274.90;99.70;;;;;;5001898;28;20393;-69
2024/01/16 01:49:28;;;;;;;7.63;3.42;;;-3274.90;99.70;;;;;;4998427;28;20042;-69
2024/01/16 01:51:55;;;;;;;7.43;4.07;;;-3274.90;99.60;;;;;;4999290;28;20642;-69
2024/01/16 01:54:22;;;;;;;7.15;3.78;;;-3274.80;99.70;;;;;;5003858;28;20090;-70
2024/01/16 01:56:49;;;;;;;8.52;3.88;;;-3274.90;99.80;;;;;;4993563;28;20096;-69
2024/01/16 01:59:18;;;;;;;6.30;2.80;;;-3274.90;99.80;;;;;;5004617;28;20423;-70
2024/01/16 02:01:44;;;;;;;6.90;3.25;;;-3274.90;99.80;;;;;;5002849;28;20042;-69
2024/01/16 02:04:12;;;;;;;5.65;2.55;;;-3274.90;99.80;;;;;;4992333;28;20375;-69
2024/01/16 02:06:37;;;;;;;6.95;3.10;;;-3274.90;99.80;;;;;;5002464;28;20186;-69
2024/01/16 02:09:06;;;;;;;6.35;2.80;;;-3274.90;99.80;;;;;;5001435;28;20093;-70
2024/01/16 02:11:32;;;;;;;7.60;3.03;;;-3274.90;99.80;;;;;;4996767;28;20411;-69
2024/01/16 02:13:58;;;;;;;5.60;3.10;;;-3275.00;99.70;;;;;;5006350;28;20049;-69
2024/01/16 02:16:24;;;;;;;7.13;2.70;;;-3275.00;99.70;;;;;;4998879;28;20435;-69
2024/01/16 02:18:51;;;;;;;6.03;3.15;;;-3274.90;99.70;;;;;;5002135;28;20038;-68
2024/01/16 02:21:27;;;;;;;8.68;3.25;;;-3275.00;99.70;;;;;;4999600;28;20111;-69
2024/01/16 02:23:53;;;;;;;6.32;2.80;;;-3275.00;99.80;;;;;;4999058;28;20052;-69
2024/01/16 02:26:19;;;;;;;6.55;2.78;;;-3275.00;99.60;;;;;;4999678;28;20048;-69
2024/01/16 02:28:45;;;;;;;6.43;2.92;;;-3275.00;99.70;;;;;;5001472;28;20575;-70
2024/01/16 02:31:10;;;;;;;5.32;2.40;;;-3275.00;99.70;;;;;;4993310;28;20030;-69
2024/01/16 02:33:36;;;;;;;5.93;2.70;;;-3275.00;99.70;;;;;;4983969;28;20321;-69
2024/01/16 02:36:01;;;;;;;7.22;2.03;;;-3275.10;99.60;;;;;;5004632;28;20453;-69
2024/01/16 02:38:27;;;;;;;6.68;2.83;;;-3275.10;99.60;;;;;;5004674;28;20022;-70
2024/01/16 02:40:52;;;;;;;4.88;2.05;;;-3275.10;99.60;;;;;;4998429;28;20034;-69
2024/01/16 02:43:18;;;;;;;4.38;2.28;;;-3275.10;99.60;;;;;;4994970;28;20074;-69
2024/01/16 02:45:43;;;;;;;4.60;2.45;;;-3275.20;99.60;;;;;;4985282;28;20145;-69
2024/01/16 02:48:09;;;;;;;6.07;2.65;;;-3275.30;99.70;;;;;;5003229;28;20376;-69
2024/01/16 02:50:34;;;;;;;5.32;2.38;;;-3275.20;99.60;;;;;;4999030;28;20123;-69
2024/01/16 02:53:00;;;;;;;7.68;2.83;;;-3275.20;99.50;;;;;;5003465;28;20038;-69
2024/01/16 02:55:25;;;;;;;6.47;2.83;;;-3275.30;99.60;;;;;;4995388;28;20315;-69
2024/01/16 02:57:51;;;;;;;5.60;3.05;;;-3275.30;99.70;;;;;;5001480;28;20091;-69
2024/01/16 03:00:17;;;;;;;4.68;2.40;;;-3275.30;99.60;;;;;;4994838;28;20378;-69
2024/01/16 03:02:43;;;;;;;5.07;2.40;;;-3275.30;99.60;;;;;;4996597;28;20054;-68
2024/01/16 03:05:09;;;;;;;4.13;2.10;;;-3275.30;99.60;;;;;;5004231;28;20026;-69
2024/01/16 03:07:35;;;;;;;7.82;2.92;;;-3275.30;99.60;;;;;;5004249;28;20030;-70
2024/01/16 03:10:00;;;;;;;5.70;2.63;;;-3275.30;99.60;;;;;;5001781;28;20105;-69
2024/01/16 03:12:26;;;;;;;6.70;2.90;;;-3275.30;99.60;;;;;;5005727;28;20129;-69
2024/01/16 03:14:53;;;;;;;5.47;2.65;;;-3275.30;99.60;;;;;;5000236;28;20111;-68
2024/01/16 03:17:19;;;;;;;4.72;2.13;;;-3275.30;99.60;;;;;;4999165;28;20157;-69
2024/01/16 03:19:44;;;;;;;6.47;2.33;;;-3275.30;99.60;;;;;;4996070;28;20061;-69
2024/01/16 03:22:10;;;;;;;3.00;1.38;;;-3275.30;99.70;;;;;;5001129;28;20102;-71
2024/01/16 03:24:35;;;;;;;4.45;1.90;;;-3275.30;99.80;;;;;;4997535;28;20368;-68
2024/01/16 03:27:01;;;;;;;2.83;1.60;;;-3275.40;99.80;;;;;;4994849;28;20144;-71
2024/01/16 03:29:26;;;;;;;4.10;1.40;;;-3275.40;99.90;;;;;;4995090;28;20029;-69
2024/01/16 03:31:53;;;;;;;3.47;1.65;;;-3275.50;99.90;;;;;;4998026;28;20045;-69
2024/01/16 03:34:18;;;;;;;2.63;1.40;;;-3275.50;99.90;;;;;;5007984;28;20030;-69
2024/01/16 03:36:44;;;;;;;3.08;1.45;;;-3275.50;99.90;;;;;;5000705;28;20038;-69
2024/01/16 03:39:09;;;;;;;2.85;1.10;;;-3275.60;99.90;;;;;;5001427;28;20450;-69
2024/01/16 03:41:35;;;;;;;2.88;1.45;;;-3275.60;99.90;;;;;;5002393;28;20037;-69
2024/01/16 03:44:00;;;;;;;2.20;0.90;;;-3275.60;99.90;;;;;;5002466;28;20034;-68
2024/01/16 03:46:26;;;;;;;0.80;0.73;;;-3275.60;99.90;;;;;;4998073;28;20524;-69
2024/01/16 03:48:51;;;;;;;2.58;1.20;;;-3275.50;99.90;;;;;;4999106;28;20048;-69
2024/01/16 03:51:19;;;;;;;2.55;1.08;;;-3275.40;99.90;;;;;;4988643;28;20088;-69
2024/01/16 03:53:45;;;;;;;3.00;1.38;;;-3275.30;99.90;;;;;;5003516;28;20435;-69
2024/01/16 03:56:10;;;;;;;1.08;0.77;;;-3275.10;99.90;;;;;;5001753;28;20085;-69
2024/01/16 03:58:36;;;;;;;0.77;0.50;;;-3275.20;99.90;;;;;;4997737;28;20370;-69
2024/01/16 04:01:01;;;;;;;0.88;0.63;;;-3275.20;99.90;;;;;;4999783;28;20075;-68
2024/01/16 04:03:27;;;;;;;0.38;0.32;;;-3275.30;99.90;;;;;;4993943;28;20034;-69
2024/01/16 04:05:52;;;;;;;0.25;0.25;;;-3275.20;99.90;;;;;;4982357;28;20442;-70
2024/01/16 04:08:18;;;;;;;0.52;0.32;;;-3275.30;99.90;;;;;;4996792;28;20058;-69
2024/01/16 04:10:43;;;;;;;0.40;0.40;;;-3275.20;99.90;;;;;;4998229;28;20117;-69
2024/01/16 04:13:09;;;;;;;0.32;0.32;;;-3275.20;99.90;;;;;;4998735;28;20046;-69
2024/01/16 04:15:38;;;;;;;0.50;0.40;;;-3275.10;99.90;;;;;;4997916;28;20450;-69
2024/01/16 04:18:03;;;;;;;0.22;0.22;;;-3275.00;99.90;;;;;;4978470;28;20115;-69
2024/01/16 04:20:29;;;;;;;1.45;0.50;;;-3275.10;99.90;;;;;;4999827;28;20471;-70
2024/01/16 04:22:54;;;;;;;0.10;0.10;;;-3275.00;99.90;;;;;;4979315;28;20128;-69
2024/01/16 04:25:20;;;;;;;0.20;0.20;;;-3275.10;99.90;;;;;;5001487;28;20451;-69
2024/01/16 04:27:45;;;;;;;0.20;0.20;;;-3275.20;99.90;;;;;;4996781;28;20077;-69
2024/01/16 04:30:11;;;;;;;0.40;0.30;;;-3275.20;99.90;;;;;;4981069;28;20026;-69
2024/01/16 04:32:37;;;;;;;0.85;0.40;;;-3275.30;99.90;;;;;;4981623;28;20069;-69
2024/01/16 04:35:04;;;;;;;0.40;0.40;;;-3275.30;99.90;;;;;;5000295;28;20317;-68
2024/01/16 04:37:29;;;;;;;0.35;0.32;;;-3275.40;99.90;;;;;;5004343;28;20078;-69
2024/01/16 04:39:54;;;;;;;0.57;0.40;;;-3275.30;99.90;;;;;;4999010;28;20039;-70
2024/01/16 04:42:20;;;;;;;0.77;0.43;;;-3275.40;99.90;;;;;;5006166;28;20451;-69
2024/01/16 04:44:45;;;;;;;0.55;0.40;;;-3275.40;99.90;;;;;;5000930;28;20050;-69
2024/01/16 04:47:11;;;;;;;0.90;0.40;;;-3275.40;99.90;;;;;;5008323;28;20038;-69
2024/01/16 04:49:37;;;;;;;0.60;0.40;;;-3275.30;99.90;;;;;;5005706;28;20034;-68
2024/01/16 04:52:03;;;;;;;0.45;0.45;;;-3275.30;99.90;;;;;;5001908;28;20179;-71
2024/01/16 04:54:28;;;;;;;1.08;0.45;;;-3275.30;99.90;;;;;;4997204;28;20438;-69
2024/01/16 04:56:54;;;;;;;4.22;0.85;;;-3275.40;99.90;;;;;;5004025;28;20036;-68
2024/01/16 04:59:20;;;;;;;2.13;0.55;;;-3275.40;99.90;;;;;;5001509;28;20038;-71
2024/01/16 05:01:45;;;;;;;1.48;0.60;;;-3275.40;99.90;;;;;;5000691;28;20045;-69
2024/01/16 05:04:11;;;;;;;1.95;0.82;;;-3275.40;99.90;;;;;;4997200;28;20034;-69
2024/01/16 05:06:36;;;;;;;3.65;0.70;;;-3275.40;99.90;;;;;;5003374;28;20567;-68
2024/01/16 05:09:03;;;;;;;1.27;0.70;;;-3275.40;99.90;;;;;;4996879;28;20089;-69
2024/01/16 05:11:28;;;;;;;4.65;0.82;;;-3275.50;99.90;;;;;;4998092;28;20030;-68
2024/01/16 05:13:57;;;;;;;1.90;0.90;;;-3275.30;99.90;;;;;;5001668;28;20049;-69
2024/01/16 05:16:25;;;;;;;1.17;0.70;;;-3275.30;99.90;;;;;;4999668;28;20117;-69
2024/01/16 05:18:50;;;;;;;1.13;0.75;;;-3275.40;99.90;;;;;;4997712;28;20033;-68
2024/01/16 05:21:15;;;;;;;2.58;1.00;;;-3275.40;99.90;;;;;;5005646;28;20034;-68
2024/01/16 05:23:41;;;;;;;1.35;0.80;;;-3275.50;99.90;;;;;;5008443;28;20050;-68
2024/01/16 05:26:06;;;;;;;1.77;1.05;;;-3275.50;99.90;;;;;;4997379;28;20315;-68
2024/01/16 05:28:32;;;;;;;2.65;1.13;;;-3275.50;99.90;;;;;;5003108;28;20044;-68
2024/01/16 05:30:57;;;;;;;1.55;0.85;;;-3275.50;99.90;;;;;;4982780;28;20462;-68
2024/01/16 05:33:23;;;;;;;2.13;0.98;;;-3275.60;99.90;;;;;;5000513;28;20138;-68
2024/01/16 05:35:48;;;;;;;1.83;1.02;;;-3275.60;99.80;;;;;;5002430;28;20034;-68
2024/01/16 05:38:14;;;;;;;2.00;0.90;;;-3275.50;99.70;;;;;;4999924;28;20399;-68
2024/01/16 05:40:39;;;;;;;1.55;0.77;;;-3275.60;99.70;;;;;;4992394;28;20419;-68
2024/01/16 05:43:05;;;;;;;1.65;0.95;;;-3275.60;99.70;;;;;;4999305;28;20030;-70
2024/01/16 05:45:30;;;;;;;2.85;1.17;;;-3275.60;99.60;;;;;;4999083;28;20061;-68
2024/01/16 05:47:56;;;;;;;2.40;1.15;;;-3275.50;99.70;;;;;;5001853;28;20390;-68
2024/01/16 05:50:21;;;;;;;3.83;1.58;;;-3275.50;99.60;;;;;;4999413;28;20044;-68
2024/01/16 05:52:47;;;;;;;3.92;1.80;;;-3275.40;99.70;;;;;;5002931;28;20045;-69
2024/01/16 05:55:13;;;;;;;4.28;2.05;;;-3275.40;99.80;;;;;;4999774;28;20109;-68
2024/01/16 05:57:38;;;;;;;3.85;1.98;;;-3275.40;99.80;;;;;;4997329;28;20030;-68
2024/01/16 06:00:05;;;;;;;6.45;2.45;;;-3275.50;99.90;;;;;;4991028;28;20404;-69
2024/01/16 06:02:31;;;;;;;5.80;2.67;;;-3275.50;99.90;;;;;;5000566;28;20078;-68
2024/01/16 06:04:56;;;;;;;6.43;3.05;;;-3275.50;99.90;;;;;;4993138;28;20082;-69
2024/01/16 06:07:22;;;;;;;7.60;3.53;;;-3275.60;99.90;;;;;;4998952;28;20082;-68
2024/01/16 06:09:47;;;;;;;6.32;3.30;;;-3275.60;99.90;;;;;;4978468;28;20049;-72
2024/01/16 06:12:13;;;;;;;7.03;2.97;;;-3275.60;99.80;;;;;;5004142;28;20109;-66
2024/01/16 06:14:38;;;;;;;8.43;3.17;;;-3275.60;99.80;;;;;;4995460;28;20413;-69
2024/01/16 06:17:06;;;;;;;5.97;3.17;;;-3275.60;99.80;;;;;;5002077;28;20419;-67
2024/01/16 06:19:32;;;;;;;6.60;3.33;;;-3275.60;99.70;;;;;;5002136;28;20101;-67
2024/01/16 06:21:58;;;;;;;6.20;3.08;;;-3275.60;99.60;;;;;;5002282;28;20089;-66
2024/01/16 06:24:24;;;;;;;6.28;2.60;;;-3275.70;99.60;;;;;;4997742;28;20082;-67
2024/01/16 06:26:49;;;;;;;5.70;2.85;;;-3275.60;99.60;;;;;;5001154;28;20030;-66
2024/01/16 06:29:15;;;;;;;8.18;2.88;;;-3275.70;99.60;;;;;;4974969;28;20128;-68
2024/01/16 06:31:40;;;;;;;6.50;2.95;;;-3275.60;99.60;;;;;;4996423;28;20114;-66
2024/01/16 06:34:06;;;;;;;6.25;2.47;;;-3275.60;99.50;;;;;;4992975;28;20120;-65
2024/01/16 06:36:31;;;;;;;5.00;1.73;;;-3275.60;99.60;;;;;;4996951;28;20420;-67
2024/01/16 06:38:57;;;;;;;4.47;2.30;;;-3275.50;99.50;;;;;;4995241;28;20038;-67
2024/01/16 06:41:22;;;;;;;3.85;1.85;;;-3275.50;99.60;;;;;;4993574;28;20038;-68
2024/01/16 06:43:48;;;;;;;5.35;2.25;;;-3275.50;99.60;;;;;;4996141;28;20029;-69
2024/01/16 06:46:13;;;;;;;3.65;1.83;;;-3275.40;99.60;;;;;;4997901;28;20339;-67
2024/01/16 06:48:39;;;;;;;4.35;2.03;;;-3275.40;99.70;;;;;;4987519;28;20075;-66
2024/01/16 06:51:05;;;;;;;7.50;2.17;;;-3275.30;99.70;;;;;;4999980;28;20041;-67
2024/01/16 06:53:30;;;;;;;4.30;1.90;;;-3275.30;99.70;;;;;;5001371;28;20041;-67
2024/01/16 06:55:56;;;;;;;4.75;2.10;;;-3275.30;99.80;;;;;;4993194;28;20038;-67
2024/01/16 06:58:21;;;;;;;2.85;1.35;;;-3275.30;99.80;;;;;;4996725;28;20034;-67
2024/01/16 07:00:47;;;;;;;3.35;1.67;;;-3275.30;99.80;;;;;;5000008;28;20087;-67
2024/01/16 07:03:13;;;;;;;4.70;1.50;;;-3275.30;99.80;;;;;;4997596;28;20341;-67
2024/01/16 07:05:40;;;;;;;3.13;1.35;;;-3275.30;99.70;;;;;;5001047;28;20038;-67
2024/01/16 07:08:06;;;;;;;3.42;1.60;;;-3275.20;99.70;;;;;;5001937;28;20107;-67
2024/01/16 07:10:32;;;;;;;2.85;1.30;;;-3275.20;99.80;;;;;;4990830;28;20110;-67
2024/01/16 07:12:57;;;;;;;7.18;1.77;;;-3275.20;99.80;;;;;;5002475;28;20061;-67
2024/01/16 07:15:23;;;;;;;2.42;1.50;;;-3275.20;99.80;;;;;;4999960;28;20144;-67
2024/01/16 07:17:48;;;;;;;2.33;1.10;;;-3275.30;99.80;;;;;;4999889;28;20041;-67
2024/01/16 07:20:14;;;;;;;3.15;1.42;;;-3275.30;99.80;;;;;;4991465;28;20458;-67
2024/01/16 07:22:39;;;;;;;7.10;2.20;;;-3275.30;99.80;;;;;;4996577;28;20034;-66
2024/01/16 07:25:06;;;;;;;5.00;1.73;;;-3275.30;99.70;;;;;;4995628;28;20036;-67
2024/01/16 07:27:32;;;;;;;2.20;1.25;;;-3275.30;99.70;;;;;;4997437;28;20041;-67
2024/01/16 07:29:57;;;;;;;1.80;1.20;;;-3275.30;99.60;;;;;;4994557;28;20033;-67
2024/01/16 07:32:23;;;;;;;3.60;1.80;;;-3275.30;99.60;;;;;;5006297;28;20038;-66
2024/01/16 07:34:48;;;;;;;2.22;1.30;;;-3275.40;99.60;;;;;;4997685;28;20030;-66
2024/01/16 07:37:15;;;;;;;4.03;1.45;;;-3275.40;99.60;;;;;;4995420;28;20038;-67
2024/01/16 07:39:41;;;;;;;2.80;1.42;;;-3275.40;99.50;;;;;;5005760;28;20018;-67
2024/01/16 07:42:06;;;;;;;2.63;1.40;;;-3275.30;99.40;;;;;;4999757;28;20087;-67
2024/01/16 07:44:32;;;;;;;3.17;1.23;;;-3275.30;99.40;;;;;;5000237;28;20084;-67
2024/01/16 07:46:57;;;;;;;4.97;1.48;;;-3275.30;99.40;;;;;;5001627;28;20030;-66
2024/01/16 07:49:23;;;;;;;2.72;1.50;;;-3275.30;99.40;;;;;;5004343;28;20116;-67
2024/01/16 07:51:49;;;;;;;2.55;0.80;;;-3275.30;99.40;;;;;;4998541;28;20068;-67
2024/01/16 07:54:14;;;;;;;6.15;1.33;;;-3275.40;99.50;;;;;;5000204;28;20066;-67
2024/01/16 07:56:40;;;;;;;1.63;1.10;;;-3275.40;99.50;;;;;;4993034;28;20081;-67
2024/01/16 07:59:06;;;;;;;1.98;0.93;;;-3275.50;99.40;;;;;;4994139;28;20075;-67
2024/01/16 08:01:32;;;;;;;2.50;1.35;;;-3275.50;99.50;;;;;;4992244;28;20062;-68
2024/01/16 08:03:57;;;;;;;3.80;1.27;;;-3275.60;99.40;;;;;;4996655;28;20069;-67
2024/01/16 08:06:23;;;;;;;2.63;1.60;;;-3275.60;99.40;;;;;;4993807;28;20382;-67
2024/01/16 08:08:49;;;;;;;2.22;1.55;;;-3275.70;99.40;;;;;;5003723;28;20352;-67
2024/01/16 08:11:15;;;;;;;2.22;1.13;;;-3275.70;99.40;;;;;;4997632;28;20034;-67
2024/01/16 08:13:41;;;;;;;2.00;1.52;;;-3275.70;99.30;;;;;;4988778;28;20096;-67
2024/01/16 08:16:07;;;;;;;3.63;1.15;;;-3275.80;99.20;;;;;;4977293;28;20034;-66
2024/01/16 08:18:34;;;;;;;1.10;0.80;;;-3275.80;99.10;;;;;;4998893;28;20034;-67
2024/01/16 08:20:59;;;;;;;1.45;0.90;;;-3275.80;99.00;;;;;;4999072;28;20049;-66
2024/01/16 08:23:25;;;;;;;3.17;1.25;;;-3275.80;98.90;;;;;;5002780;28;20058;-67
2024/01/16 08:25:51;;;;;;;3.08;1.52;;;-3275.90;98.90;;;;;;4993542;28;20046;-67
2024/01/16 08:28:17;;;;;;;1.90;1.13;;;-3275.90;98.90;;;;;;5000841;28;20041;-67
2024/01/16 08:30:43;;;;;;;2.17;0.95;;;-3275.90;98.90;;;;;;4990849;28;20040;-66
2024/01/16 08:33:08;;;;;;;2.78;0.80;;;-3275.90;98.80;;;;;;4993192;28;20038;-67
2024/01/16 08:35:34;;;;;;;2.83;1.23;;;-3275.90;98.80;;;;;;4999824;28;20838;-67
2024/01/16 08:37:59;;;;;;;3.00;0.80;;;-3276.00;98.70;;;;;;4992160;28;20373;-66
2024/01/16 08:40:25;;;;;;;3.65;1.30;;;-3276.00;98.60;;;;;;4998225;28;20069;-67
2024/01/16 08:42:54;;;;;;;3.30;1.25;;;-3276.10;98.50;;;;;;5003095;28;20292;-67
2024/01/16 08:45:20;;;;;;;2.50;1.08;;;-3276.10;98.30;;;;;;4996936;28;20171;-67
2024/01/16 08:47:46;;;;;;;2.08;0.82;;;-3276.10;98.20;;;;;;4990899;28;20045;-66
2024/01/16 08:50:12;;;;;;;4.28;1.02;;;-3276.10;98.10;;;;;;4998439;28;20038;-67
2024/01/16 08:52:37;;;;;;;2.03;1.20;;;-3276.10;98.00;;;;;;4980363;28;20073;-66
2024/01/16 08:55:03;;;;;;;3.53;1.13;;;-3276.20;97.90;;;;;;4991308;28;20035;-67
2024/01/16 08:57:29;;;;;;;2.95;1.08;;;-3276.40;97.90;;;;;;5000375;28;20026;-67
2024/01/16 08:59:55;;;;;;;2.65;1.05;;;-3276.40;97.70;;;;;;4999150;28;20395;-67
2024/01/16 09:02:21;;;;;;;3.45;0.90;;;-3276.40;97.50;;;;;;4993259;28;20138;-67
2024/01/16 09:04:47;;;;;;;4.30;0.93;;;-3276.50;97.60;;;;;;4993804;28;20109;-67
2024/01/16 09:07:15;;;;;;;3.20;0.95;;;-3276.40;97.10;;;;;;4992090;28;20038;-67
2024/01/16 09:09:42;;;;;;;1.58;0.80;;;-3276.50;97.20;;;;;;4991116;28;20022;-67
2024/01/16 09:12:08;;;;;;;2.78;0.90;;;-3276.60;97.20;;;;;;4994299;28;20336;-67
2024/01/16 09:14:33;;;;;;;3.30;1.13;;;-3276.50;97.00;;;;;;4976319;28;20142;-68
2024/01/16 09:16:59;;;;;;;1.73;0.80;;;-3276.40;97.00;;;;;;4995209;28;20113;-67
2024/01/16 09:19:24;;;;;;;2.63;1.45;;;-3276.40;97.20;;;;;;4998793;28;20034;-68
2024/01/16 09:21:50;;;;;;;0.50;0.50;;;-3276.40;97.40;;;;;;5006061;28;20109;-67
2024/01/16 09:24:16;;;;;;;1.33;0.80;;;-3276.40;97.20;;;;;;4984999;28;20109;-68
2024/01/16 09:26:41;;;;;;;3.47;0.98;;;-3276.50;97.30;;;;;;4995698;28;20382;-66
2024/01/16 09:29:09;;;;;;;2.97;0.82;;;-3276.40;97.30;;;;;;4999090;28;20403;-68
2024/01/16 09:31:35;;;;;;;1.80;0.90;;;-3276.40;97.50;;;;;;4979472;28;20034;-68
2024/01/16 09:34:01;;;;;;;2.72;0.95;;;-3276.50;97.40;;;;;;4997156;28;20049;-67
2024/01/16 09:36:26;;;;;;;1.55;0.80;;;-3276.60;97.30;;;;;;4985867;28;20110;-67
2024/01/16 09:38:52;;;;;;;2.83;1.33;;;-3276.70;97.30;;;;;;4978025;28;20343;-67
2024/01/16 09:41:17;;;;;;;2.25;1.30;;;-3276.60;97.20;;;;;;4993605;28;20084;-67
2024/01/16 09:43:45;;;;;;;2.05;1.05;;;-3276.60;97.20;;;;;;4983167;28;20045;-69
2024/01/16 09:46:12;;;;;;;3.90;1.30;;;-3276.70;97.20;;;;;;5003891;28;20106;-68
2024/01/16 09:48:37;;;;;;;3.10;1.52;;;0.00;96.90;;;;;;4996861;28;20030;-67
2024/01/16 09:51:03;;;;;;;3.55;1.45;;;0.00;97.10;;;;;;4999991;28;20034;-67
2024/01/16 09:53:29;;;;;;;2.22;1.35;;;0.00;97.10;;;;;;4976159;28;20116;-68
2024/01/16 09:55:57;;;;;;;2.63;1.52;;;-3276.70;97.30;;;;;;4998325;28;20042;-67
2024/01/16 09:58:23;;;;;;;5.18;1.33;;;0.00;97.30;;;;;;4994929;28;20034;-68
2024/01/16 10:00:50;;;;;;;2.50;0.93;;;-3276.70;97.40;;;;;;4976111;28;20326;-67
2024/01/16 10:03:16;;;;;;;1.73;1.30;;;-3276.70;97.60;;;;;;4996053;28;20118;-67
2024/01/16 10:05:42;;;;;;;2.60;1.30;;;-3276.70;97.80;;;;;;4983070;28;20473;-67
2024/01/16 10:08:08;;;;;;;3.55;1.48;;;-3276.70;97.70;;;;;;4997420;28;20035;-68
2024/01/16 10:10:34;;;;;;;4.10;2.03;;;0.00;97.80;;;;;;4998534;28;20463;-68
2024/01/16 10:13:00;;;;;;;2.17;1.48;;;0.00;97.80;;;;;;4998504;28;20153;-68
2024/01/16 10:15:25;;;;;;;4.75;1.80;;;0.00;97.70;;;;;;5004756;28;20029;-70
2024/01/16 10:17:52;;;;;;;4.13;2.05;;;0.00;97.80;;;;;;4996490;28;20034;-67
2024/01/16 10:20:34;;;;;;;2.95;1.70;;;0.00;97.70;;;;;;5001091;28;20034;-69
2024/01/16 10:23:00;;;;;;;3.33;1.67;;;0.00;97.80;;;;;;4992018;28;20056;-67
2024/01/16 10:25:25;;;;;;;3.88;1.85;;;0.00;97.70;;;;;;4993683;28;20917;-67
2024/01/16 10:28:04;;;;;;;3.17;1.63;;;0.00;97.70;;;;;;4994735;28;20128;-67
2024/01/16 10:30:30;;;;;;;4.07;1.65;;;0.10;97.50;;;;;;4991659;28;20035;-67
2024/01/16 10:32:57;;;;;;;4.18;2.55;;;0.10;97.40;;;;;;4995862;28;20041;-68
2024/01/16 10:35:22;;;;;;;2.75;2.03;;;0.20;97.40;;;;;;4995582;28;20030;-69
2024/01/16 10:37:54;;;;;;;4.68;1.95;;;0.20;97.10;;;;;;5002209;28;20053;-67
2024/01/16 10:40:21;;;;;;;6.82;2.47;;;0.20;97.20;;;;;;4991761;28;20173;-67
2024/01/16 10:43:17;;;;;;;7.20;2.38;;;0.20;97.20;;;;;;4998833;28;20044;-67
2024/01/16 10:45:42;;;;;;;4.05;2.40;;;0.20;97.20;;;;;;4970559;28;20049;-67
2024/01/16 10:48:08;;;;;;;3.95;2.38;;;0.20;97.30;;;;;;4992140;28;20053;-69
2024/01/16 10:50:35;;;;;;;4.55;2.33;;;0.20;97.40;;;;;;4997176;28;20164;-68
2024/01/16 10:53:05;;;;;;;7.30;3.00;;;0.30;97.40;;;;;;5002099;28;20137;-67
2024/01/16 10:55:33;;;;;;;8.35;2.55;;;0.20;97.40;;;;;;4997562;28;20181;-67
2024/01/16 10:58:00;;;;;;;6.32;2.97;;;0.20;97.50;;;;;;5004205;28;20478;-67
2024/01/16 11:00:30;;;;;;;6.63;3.00;;;0.10;97.50;;;;;;4991424;28;20029;-67
2024/01/16 11:03:07;;;;;;;5.22;2.70;;;0.10;97.70;;;;;;4990502;28;20038;-67
2024/01/16 11:05:35;;;;;;;6.55;3.00;;;0.10;97.80;;;;;;4990456;28;20022;-68
2024/01/16 11:08:01;;;;;;;6.32;3.30;;;0.10;97.70;;;;;;4993728;28;20427;-67
2024/01/16 11:10:28;;;;;;;7.30;3.90;;;0.10;97.50;;;;;;4998029;28;20041;-67
2024/01/16 11:12:55;;;;;;;7.88;3.67;;;0.30;97.30;;;;;;4992093;28;20125;-67
2024/01/16 11:15:21;;;;;;;5.43;2.70;;;0.40;97.30;;;;;;4993521;28;20542;-68
2024/01/16 11:17:49;;;;;;;5.07;2.58;;;0.40;96.90;;;;;;5000007;28;20116;-68
2024/01/16 11:20:16;;;;;;;7.88;3.03;;;0.40;97.00;;;;;;4999027;28;20467;-69
2024/01/16 11:22:44;;;;;;;6.32;2.83;;;0.30;97.20;;;;;;4994712;28;20133;-67
2024/01/16 11:25:15;;;;;;;6.35;3.33;;;0.20;97.20;;;;;;5001251;28;20040;-68
2024/01/16 11:27:42;;;;;;;5.97;3.35;;;0.30;97.30;;;;;;5001384;28;20110;-68
2024/01/16 11:30:09;;;;;;;7.78;3.92;;;0.30;97.30;;;;;;4997885;28;20118;-68
2024/01/16 11:32:40;;;;;;;8.70;3.58;;;0.30;97.20;;;;;;5000996;28;20048;-68
2024/01/16 11:35:09;;;;;;;6.45;3.13;;;0.30;97.10;;;;;;5002115;28;20060;-68
2024/01/16 11:37:37;;;;;;;7.28;4.10;;;0.20;97.30;;;;;;4992524;28;20120;-68
2024/01/16 11:40:21;;;;;;;5.72;3.10;;;0.20;97.40;;;;;;5000954;28;20037;-68
2024/01/16 11:42:52;;;;;;;5.43;3.40;;;0.20;97.50;;;;;;5003041;28;20145;-67
2024/01/16 11:45:27;;;;;;;6.55;3.22;;;0.30;97.40;;;;;;4997235;28;20046;-68
2024/01/16 11:48:11;;;;;;;7.78;3.83;;;0.40;97.00;;;;;;5002320;28;20416;-68
2024/01/16 11:50:37;;;;;;;7.85;3.90;;;0.60;96.50;;;;;;4992817;28;20076;-69
2024/01/16 11:53:03;;;;;;;6.97;3.72;;;0.60;96.20;;;;;;5001390;28;20080;-68
2024/01/16 11:55:37;;;;;;;6.88;2.70;;;0.60;96.30;;;;;;4999586;28;20377;-67
2024/01/16 11:58:17;;;;;;;6.57;4.32;;;0.50;96.60;;;;;;5002349;28;20126;-68
2024/01/16 12:00:45;;;;;;;6.45;3.42;;;0.40;96.80;;;;;;4995290;28;20025;-69
2024/01/16 12:03:13;;;;;;;7.45;4.03;;;0.40;97.00;;;;;;4996058;28;20363;-68
2024/01/16 12:05:39;;;;;;;6.93;3.53;;;0.40;97.10;;;;;;4991569;28;20038;-68
2024/01/16 12:08:06;;;;;;;6.70;3.47;;;0.30;97.20;;;;;;4997132;28;20478;-68
2024/01/16 12:10:31;;;;;;;9.25;3.47;;;0.40;97.30;;;;;;4998236;28;20096;-68
2024/01/16 12:12:59;;;;;;;7.82;4.18;;;0.40;97.20;;;;;;4998563;28;20072;-68
2024/01/16 12:15:24;;;;;;;5.55;3.53;;;0.40;97.40;;;;;;5002185;28;20485;-68
2024/01/16 12:18:01;;;;;;;8.20;3.90;;;0.50;97.10;;;;;;4998721;28;20045;-68
2024/01/16 12:20:31;;;;;;;6.63;3.95;;;0.50;97.00;;;;;;5001240;28;20037;-68
2024/01/16 12:23:07;;;;;;;8.57;3.78;;;0.60;97.00;;;;;;5003735;28;20034;-68